Time;durP1;ratioP1;P1;durP2;ratioP2;P2;SDS_P1;SDS_P2;PMS_P1;PMS_P2;Temp;Humidity;BMP_temperature;BMP_pressure;BME280_temperature;BME280_humidity;BME280_pressure;Samples;Min_cycle;Max_cycle;Signal;HPM_P1;HPM_P2
2021/04/10 00:02:23;;;;;;;28.55;14.05;;;;;;;3.54;51.86;97270.12;1822105;78;27489;-78
2021/04/10 00:04:51;;;;;;;31.10;13.65;;;;;;;3.55;52.39;97271.78;1821974;78;27363;-77
2021/04/10 00:07:19;;;;;;;29.80;14.43;;;;;;;3.45;52.45;97267.14;1822104;78;25829;-79
2021/04/10 00:09:46;;;;;;;29.45;14.03;;;;;;;3.43;52.60;97261.97;1822028;78;25773;-78
2021/04/10 00:12:14;;;;;;;29.57;12.65;;;;;;;3.42;52.70;97268.81;1822006;78;25762;-79
2021/04/10 00:14:42;;;;;;;27.10;12.78;;;;;;;3.38;52.87;97268.31;1821999;78;27539;-77
2021/04/10 00:17:09;;;;;;;29.60;14.30;;;;;;;3.34;52.61;97276.34;1821995;78;26280;-77
2021/04/10 00:19:36;;;;;;;28.38;13.43;;;;;;;3.37;52.96;97267.17;1822067;77;25662;-78
2021/04/10 00:22:04;;;;;;;31.48;12.88;;;;;;;3.43;53.04;97273.15;1821968;77;26027;-76
2021/04/10 00:24:32;;;;;;;31.23;13.93;;;;;;;3.50;53.07;97264.28;1822078;78;25715;-76
2021/04/10 00:26:59;;;;;;;26.23;12.88;;;;;;;3.58;52.84;97268.78;1822057;77;27652;-77
2021/04/10 00:29:27;;;;;;;24.50;11.88;;;;;;;3.56;52.96;97270.28;1815548;77;26335;-78
2021/04/10 00:31:54;;;;;;;30.68;12.82;;;;;;;3.55;53.22;97265.11;1815355;77;25702;-78
2021/04/10 00:34:21;;;;;;;28.85;13.00;;;;;;;3.58;53.53;97260.78;1815379;78;25623;-77
2021/04/10 00:36:49;;;;;;;21.35;10.95;;;;;;;3.59;53.57;97266.45;1815306;78;25722;-79
2021/04/10 00:39:16;;;;;;;32.28;12.23;;;;;;;3.59;53.54;97261.11;1815351;79;27485;-78
2021/04/10 00:41:43;;;;;;;27.73;12.63;;;;;;;3.65;53.71;97260.91;1815392;78;26225;-79
2021/04/10 00:44:11;;;;;;;22.58;10.15;;;;;;;3.67;54.05;97257.58;1815241;77;25806;-77
2021/04/10 00:46:38;;;;;;;24.60;12.28;;;;;;;3.64;53.81;97254.73;1815469;78;26818;-79
2021/04/10 00:49:06;;;;;;;28.50;11.65;;;;;;;3.68;53.79;97252.56;1815469;78;26309;-78
2021/04/10 00:51:33;;;;;;;25.88;12.23;;;;;;;3.74;53.84;97251.89;1815334;78;26657;-79
2021/04/10 00:54:01;;;;;;;29.40;12.23;;;;;;;3.80;53.93;97256.53;1815257;79;25316;-78
2021/04/10 00:56:29;;;;;;;26.35;12.23;;;;;;;3.84;54.01;97245.34;1815359;78;25738;-79
2021/04/10 00:58:56;;;;;;;26.65;13.08;;;;;;;3.88;54.21;97251.15;1792931;79;25711;-78
2021/04/10 01:01:25;;;;;;;33.55;14.63;;;;;;;3.84;54.13;97246.67;1815425;79;25723;-77
2021/04/10 01:03:52;;;;;;;36.48;13.85;;;;;;;3.87;54.34;97250.81;1815397;77;27467;-78
2021/04/10 01:06:19;;;;;;;27.50;13.10;;;;;;;3.85;54.26;97243.00;1815274;79;26164;-79
2021/04/10 01:08:47;;;;;;;35.13;15.28;;;;;;;3.89;54.24;97242.97;1815325;78;25765;-79
2021/04/10 01:11:45;;;;;;;35.03;15.10;;;;;;;3.95;54.48;97238.28;1815333;77;25746;-78
2021/04/10 01:14:30;;;;;;;34.58;14.23;;;;;;;3.98;54.61;97239.25;1815332;78;25733;-79
2021/04/10 01:17:05;;;;;;;27.37;13.25;;;;;;;4.00;54.59;97249.77;1815065;78;27922;-77
2021/04/10 01:20:01;;;;;;;34.25;14.70;;;;;;;3.99;54.66;97242.25;1815105;77;25787;-79
2021/04/10 01:23:03;;;;;;;32.70;14.00;;;;;;;4.01;54.83;97237.23;1815098;77;25666;-76
2021/04/10 01:25:36;;;;;;;46.55;18.20;;;;;;;3.99;54.88;97231.56;1815409;78;25782;-77
2021/04/10 01:28:25;;;;;;;47.73;18.92;;;;;;;4.00;54.95;97228.39;1816754;77;25821;-77
2021/04/10 01:30:54;;;;;;;40.20;17.20;;;;;;;4.02;54.94;97229.56;1822095;77;28441;-79
2021/04/10 01:33:28;;;;;;;40.98;16.23;;;;;;;4.04;54.99;97226.22;1822011;78;25765;-77
2021/04/10 01:35:57;;;;;;;31.05;12.63;;;;;;;4.06;55.13;97225.04;1821957;78;25742;-77
2021/04/10 01:38:28;;;;;;;29.05;12.45;;;;;;;4.10;55.26;97221.52;1826962;77;25841;-77
2021/04/10 01:41:01;;;;;;;36.25;14.53;;;;;;;4.09;55.50;97209.17;1855550;77;25709;-77
2021/04/10 01:43:34;;;;;;;35.35;15.93;;;;;;;4.07;55.78;97218.69;1855580;76;27493;-77
2021/04/10 01:46:03;;;;;;;34.70;14.70;;;;;;;4.06;55.88;97218.86;1855452;77;26343;-77
2021/04/10 01:48:33;;;;;;;39.88;15.80;;;;;;;4.05;56.05;97211.86;1855501;76;25683;-78
2021/04/10 01:51:02;;;;;;;35.28;14.20;;;;;;;4.06;56.00;97214.36;1855622;76;26553;-78
2021/04/10 01:53:31;;;;;;;25.97;12.15;;;;;;;4.12;55.94;97211.47;1824829;77;25857;-77
2021/04/10 01:56:00;;;;;;;28.75;12.58;;;;;;;4.18;55.74;97205.44;1855540;76;27492;-77
2021/04/10 01:58:27;;;;;;;25.60;11.20;;;;;;;4.26;55.52;97204.05;1855481;76;25675;-76
2021/04/10 02:00:55;;;;;;;24.98;12.18;;;;;;;4.34;55.35;97200.00;1855534;76;25708;-77
2021/04/10 02:03:23;;;;;;;24.25;11.28;;;;;;;4.40;55.79;97201.95;1855634;76;25689;-77
2021/04/10 02:05:54;;;;;;;30.60;13.55;;;;;;;4.41;55.64;97204.95;1855558;77;25330;-77
2021/04/10 02:08:24;;;;;;;35.60;15.08;;;;;;;4.43;55.61;97200.27;1855663;77;26739;-77
2021/04/10 02:10:54;;;;;;;39.78;15.25;;;;;;;4.48;55.54;97195.20;1855447;76;25662;-79
2021/04/10 02:13:23;;;;;;;26.15;12.05;;;;;;;4.53;55.39;97192.84;1855535;76;25739;-79
2021/04/10 02:15:53;;;;;;;18.55;9.03;;;;;;;4.60;55.12;97199.12;1855634;76;26390;-79
2021/04/10 02:18:21;;;;;;;19.32;9.18;;;;;;;4.65;55.25;97190.06;1855592;77;25847;-77
2021/04/10 02:20:49;;;;;;;15.23;7.75;;;;;;;4.67;54.94;97189.39;1855532;77;27491;-77
2021/04/10 02:23:19;;;;;;;16.00;8.70;;;;;;;4.76;54.82;97187.97;1855483;76;25701;-76
2021/04/10 02:25:46;;;;;;;16.10;7.37;;;;;;;4.80;54.86;97183.44;1855479;77;25796;-77
2021/04/10 02:28:13;;;;;;;16.23;8.15;;;;;;;4.87;54.76;97187.03;1853694;76;25703;-77
2021/04/10 02:30:41;;;;;;;18.07;9.03;;;;;;;4.87;54.66;97175.00;1842998;77;25694;-77
2021/04/10 02:33:23;;;;;;;15.98;8.40;;;;;;;4.97;54.64;97184.09;1843133;77;28778;-77
2021/04/10 02:35:53;;;;;;;18.60;7.87;;;;;;;5.01;54.60;97189.42;1842478;77;25752;-78
2021/04/10 02:38:22;;;;;;;15.80;8.60;;;;;;;5.04;54.57;97179.20;1843175;77;25722;-77
2021/04/10 02:40:54;;;;;;;14.65;8.28;;;;;;;5.08;54.76;97171.62;1842995;77;25792;-77
2021/04/10 02:43:26;;;;;;;14.78;7.60;;;;;;;5.11;54.49;97180.63;1843168;77;25314;-77
2021/04/10 02:46:00;;;;;;;14.00;7.00;;;;;;;5.17;54.47;97177.73;1843324;77;28462;-77
2021/04/10 02:48:41;;;;;;;15.70;8.30;;;;;;;5.15;54.63;97176.58;1843024;77;25750;-77
2021/04/10 02:51:09;;;;;;;11.93;6.95;;;;;;;5.18;54.44;97176.22;1840827;77;25907;-77
2021/04/10 02:53:39;;;;;;;15.72;6.97;;;;;;;5.21;54.44;97178.50;1843181;77;25670;-77
2021/04/10 02:56:09;;;;;;;14.05;7.05;;;;;;;5.24;54.39;97177.31;1843337;77;25801;-77
2021/04/10 02:58:39;;;;;;;13.10;7.37;;;;;;;5.28;54.30;97183.47;1843189;77;27481;-77
2021/04/10 03:01:07;;;;;;;15.80;7.37;;;;;;;5.34;54.16;97178.70;1843182;77;25640;-76
2021/04/10 03:03:35;;;;;;;16.12;7.75;;;;;;;5.37;54.32;97178.34;1843146;77;25729;-77
2021/04/10 03:06:08;;;;;;;12.98;7.03;;;;;;;5.40;54.05;97179.32;1843158;77;26628;-77
2021/04/10 03:08:36;;;;;;;16.85;7.53;;;;;;;5.46;53.86;97178.23;1843253;77;25666;-77
2021/04/10 03:11:04;;;;;;;11.22;6.53;;;;;;;5.54;53.70;97176.83;1843222;77;27464;-77
2021/04/10 03:13:33;;;;;;;13.78;7.25;;;;;;;5.61;53.50;97177.23;1843063;77;25720;-77
2021/04/10 03:16:00;;;;;;;16.65;8.35;;;;;;;5.66;53.33;97172.16;1843216;77;25680;-79
2021/04/10 03:18:29;;;;;;;18.23;6.92;;;;;;;5.72;53.24;97170.06;1843108;77;25517;-77
2021/04/10 03:20:58;;;;;;;15.20;6.92;;;;;;;5.77;53.11;97172.19;1843152;77;25705;-77
2021/04/10 03:23:25;;;;;;;12.85;6.47;;;;;;;5.84;52.94;97169.58;1843231;77;28430;-78
2021/04/10 03:25:52;;;;;;;11.45;5.92;;;;;;;5.88;52.75;97171.74;1843093;77;26192;-77
2021/04/10 03:28:21;;;;;;;10.20;5.95;;;;;;;5.95;52.61;97160.58;1843349;77;25681;-79
2021/04/10 03:30:50;;;;;;;10.82;5.95;;;;;;;6.00;52.48;97162.20;1852176;77;26430;-78
2021/04/10 03:33:17;;;;;;;7.78;5.53;;;;;;;6.04;52.53;97166.14;1851904;77;25682;-78
2021/04/10 03:35:46;;;;;;;11.80;5.95;;;;;;;6.06;52.48;97161.43;1851833;77;27480;-77
2021/04/10 03:38:14;;;;;;;12.43;6.33;;;;;;;6.07;52.42;97161.75;1852036;77;25945;-78
2021/04/10 03:40:42;;;;;;;11.10;6.53;;;;;;;6.07;52.39;97168.45;1852065;77;25696;-77
2021/04/10 03:43:09;;;;;;;12.78;6.70;;;;;;;6.09;52.28;97165.59;1852126;77;26570;-79
2021/04/10 03:45:36;;;;;;;11.28;7.00;;;;;;;6.09;52.21;97167.76;1852083;77;26431;-77
2021/04/10 03:48:05;;;;;;;11.08;6.25;;;;;;;6.08;52.21;97166.09;1852032;77;28837;-77
2021/04/10 03:50:33;;;;;;;12.23;5.62;;;;;;;6.05;52.26;97169.66;1851909;77;25692;-77
2021/04/10 03:53:00;;;;;;;14.25;6.75;;;;;;;6.01;52.44;97174.58;1852036;77;25684;-77
2021/04/10 03:55:28;;;;;;;14.68;5.70;;;;;;;5.96;52.38;97175.64;1852003;77;25826;-77
2021/04/10 03:57:55;;;;;;;11.53;6.60;;;;;;;5.89;52.57;97179.27;1852059;77;25306;-77
2021/04/10 04:00:23;;;;;;;15.03;6.47;;;;;;;5.77;52.66;97177.55;1852016;77;28449;-79
2021/04/10 04:02:51;;;;;;;17.82;8.13;;;;;;;5.70;52.92;97173.43;1852033;77;25676;-79
2021/04/10 04:05:18;;;;;;;20.08;11.03;;;;;;;5.62;52.98;97182.08;1851957;77;25707;-79
2021/04/10 04:07:46;;;;;;;16.97;9.78;;;;;;;5.53;52.89;97181.35;1851980;77;26022;-78
2021/04/10 04:10:13;;;;;;;14.25;8.38;;;;;;;5.47;52.86;97183.92;1852004;77;25733;-78
2021/04/10 04:12:41;;;;;;;18.73;10.05;;;;;;;5.38;53.03;97184.53;1851929;77;27946;-77
2021/04/10 04:15:09;;;;;;;15.03;8.58;;;;;;;5.27;53.22;97188.49;1851968;77;25693;-77
2021/04/10 04:17:37;;;;;;;15.13;7.47;;;;;;;5.18;53.36;97190.94;1852070;77;26247;-78
2021/04/10 04:20:06;;;;;;;10.03;6.85;;;;;;;5.14;53.49;97187.46;1852016;77;26720;-79
2021/04/10 04:22:33;;;;;;;11.83;7.00;;;;;;;5.13;53.67;97189.80;1852000;77;25750;-78
2021/04/10 04:25:01;;;;;;;17.12;7.00;;;;;;;5.07;53.86;97198.08;1851978;77;27500;-77
2021/04/10 04:27:29;;;;;;;17.98;7.90;;;;;;;5.02;53.97;97196.44;1851899;77;25824;-77
2021/04/10 04:29:56;;;;;;;15.85;8.40;;;;;;;5.01;54.05;97198.78;1849221;77;25705;-79
2021/04/10 04:32:25;;;;;;;15.95;8.33;;;;;;;4.94;54.02;97200.53;1846951;76;25833;-77
2021/04/10 04:34:52;;;;;;;18.35;7.65;;;;;;;4.89;54.14;97195.72;1847019;77;26043;-78
2021/04/10 04:37:20;;;;;;;18.50;9.48;;;;;;;4.88;54.24;97198.06;1846892;77;27479;-77
2021/04/10 04:39:47;;;;;;;22.02;8.83;;;;;;;4.82;54.43;97200.64;1846726;76;26042;-79
2021/04/10 04:42:14;;;;;;;17.25;8.08;;;;;;;4.74;54.53;97202.86;1846887;77;25702;-78
2021/04/10 04:44:43;;;;;;;14.07;6.42;;;;;;;4.66;54.79;97198.42;1846924;77;26975;-78
2021/04/10 04:47:10;;;;;;;16.97;7.65;;;;;;;4.58;54.77;97203.84;1847022;76;25744;-79
2021/04/10 04:49:38;;;;;;;20.25;7.87;;;;;;;4.56;54.99;97207.70;1846833;77;27480;-77
2021/04/10 04:52:06;;;;;;;23.05;9.48;;;;;;;4.53;55.04;97219.56;1846800;77;26215;-79
2021/04/10 04:54:33;;;;;;;19.67;9.33;;;;;;;4.53;55.16;97216.89;1846860;77;25702;-78
2021/04/10 04:57:00;;;;;;;25.57;11.08;;;;;;;4.51;55.34;97218.91;1846934;77;25720;-78
2021/04/10 04:59:28;;;;;;;21.20;12.13;;;;;;;4.36;55.57;97223.34;1846837;77;25872;-77
2021/04/10 05:01:55;;;;;;;32.73;15.38;;;;;;;4.26;55.83;97225.42;1846874;77;27482;-79
2021/04/10 05:04:23;;;;;;;35.20;16.87;;;;;;;4.16;56.14;97221.64;1846774;77;25749;-78
2021/04/10 05:06:50;;;;;;;29.80;15.15;;;;;;;4.18;56.29;97222.80;1846929;77;25657;-78
2021/04/10 05:09:18;;;;;;;29.02;15.68;;;;;;;4.24;56.33;97227.43;1846843;77;26786;-77
2021/04/10 05:11:45;;;;;;;37.88;17.23;;;;;;;4.28;56.42;97228.25;1846826;77;25697;-78
2021/04/10 05:14:12;;;;;;;37.58;18.10;;;;;;;4.36;56.44;97234.03;1846831;77;27483;-77
2021/04/10 05:16:40;;;;;;;33.33;14.10;;;;;;;4.42;56.47;97234.68;1846721;77;25730;-77
2021/04/10 05:19:07;;;;;;;32.13;15.25;;;;;;;4.48;56.31;97241.14;1846909;77;25740;-78
2021/04/10 05:21:35;;;;;;;18.55;10.45;;;;;;;4.52;56.51;97244.63;1846795;77;26024;-78
2021/04/10 05:24:02;;;;;;;21.82;10.08;;;;;;;4.55;56.32;97244.28;1846869;77;25791;-79
2021/04/10 05:26:30;;;;;;;22.35;8.60;;;;;;;4.62;56.37;97247.90;1846723;77;27488;-77
2021/04/10 05:28:57;;;;;;;18.65;10.00;;;;;;;4.67;56.38;97241.52;1846875;77;25350;-80
2021/04/10 05:31:25;;;;;;;19.77;10.53;;;;;;;4.74;56.46;97235.45;1855628;76;25701;-79
2021/04/10 05:33:52;;;;;;;19.02;9.10;;;;;;;4.80;56.69;97238.76;1855468;77;25767;-78
2021/04/10 05:36:20;;;;;;;15.23;7.87;;;;;;;4.87;56.62;97243.70;1855560;77;25738;-78
2021/04/10 05:38:47;;;;;;;12.15;5.55;;;;;;;4.97;56.35;97245.62;1855490;77;28543;-77
2021/04/10 05:41:15;;;;;;;12.55;5.83;;;;;;;5.07;56.20;97244.89;1855437;77;26132;-79
2021/04/10 05:43:42;;;;;;;11.57;5.80;;;;;;;5.16;56.02;97253.16;1855476;77;25692;-79
2021/04/10 05:46:10;;;;;;;14.65;6.70;;;;;;;5.25;56.11;97255.25;1855457;77;25805;-78
2021/04/10 05:48:38;;;;;;;20.10;7.30;;;;;;;5.33;56.10;97255.99;1855489;76;25691;-78
2021/04/10 05:51:06;;;;;;;18.37;7.33;;;;;;;5.44;55.97;97258.73;1855488;77;27692;-77
2021/04/10 05:53:33;;;;;;;17.62;8.35;;;;;;;5.55;55.88;97259.65;1855343;77;25780;-78
2021/04/10 05:56:01;;;;;;;15.68;7.60;;;;;;;5.65;55.79;97258.87;1855435;77;25678;-77
2021/04/10 05:58:28;;;;;;;16.23;7.95;;;;;;;5.77;55.04;97252.55;1855523;77;26757;-79
2021/04/10 06:00:56;;;;;;;13.78;8.73;;;;;;;5.91;54.63;97258.95;1855625;77;25811;-79
2021/04/10 06:03:23;;;;;;;12.85;7.20;;;;;;;6.00;54.52;97261.34;1855536;77;28468;-78
2021/04/10 06:05:51;;;;;;;14.63;5.95;;;;;;;6.09;54.09;97260.72;1855426;77;25701;-78
2021/04/10 06:08:18;;;;;;;13.40;6.30;;;;;;;6.20;54.04;97258.06;1855504;77;25786;-79
2021/04/10 06:10:46;;;;;;;14.28;7.10;;;;;;;6.29;53.91;97271.17;1855490;77;26267;-77
2021/04/10 06:13:14;;;;;;;15.35;7.10;;;;;;;6.41;54.10;97267.49;1855483;77;25334;-78
2021/04/10 06:15:42;;;;;;;12.78;6.40;;;;;;;6.50;54.05;97267.73;1855390;77;27492;-79
2021/04/10 06:18:09;;;;;;;16.05;6.80;;;;;;;6.59;54.06;97279.16;1855346;77;25713;-78
2021/04/10 06:20:37;;;;;;;13.30;6.83;;;;;;;6.69;53.83;97270.29;1855413;77;25688;-79
2021/04/10 06:23:05;;;;;;;14.95;6.87;;;;;;;6.76;53.66;97270.67;1855524;76;25633;-79
2021/04/10 06:25:33;;;;;;;13.50;5.62;;;;;;;6.86;53.58;97269.03;1855425;76;25645;-78
2021/04/10 06:28:05;;;;;;;16.37;5.75;;;;;;;7.00;53.68;97270.00;1855468;77;27530;-78
2021/04/10 06:30:33;;;;;;;13.58;6.53;;;;;;;7.14;53.24;97271.76;1853454;76;25971;-79
2021/04/10 06:33:00;;;;;;;14.75;6.65;;;;;;;7.29;53.16;97268.48;1851942;77;25700;-78
2021/04/10 06:35:28;;;;;;;11.85;5.80;;;;;;;7.50;52.60;97271.13;1851829;77;25821;-78
2021/04/10 06:37:55;;;;;;;13.08;6.37;;;;;;;7.61;52.04;97271.64;1851910;77;25751;-79
2021/04/10 06:40:23;;;;;;;11.03;6.15;;;;;;;7.71;51.67;97264.89;1851838;77;27549;-80
2021/04/10 06:42:50;;;;;;;12.10;6.15;;;;;;;7.84;51.58;97273.55;1851801;77;25657;-80
2021/04/10 06:45:18;;;;;;;10.63;6.22;;;;;;;7.96;51.34;97271.98;1851760;77;26199;-79
2021/04/10 06:47:48;;;;;;;9.98;5.67;;;;;;;8.09;51.23;97263.95;1851837;77;25813;-79
2021/04/10 06:50:15;;;;;;;9.28;5.62;;;;;;;8.21;50.78;97275.80;1851969;77;25669;-79
2021/04/10 06:52:44;;;;;;;10.25;5.42;;;;;;;8.31;49.94;97270.08;1851869;77;27568;-79
2021/04/10 06:55:20;;;;;;;9.03;5.47;;;;;;;8.41;49.83;97267.88;1851851;77;25740;-80
2021/04/10 06:58:06;;;;;;;8.25;5.37;;;;;;;8.52;49.63;97269.98;1851917;77;25759;-79
2021/04/10 07:00:34;;;;;;;8.65;5.17;;;;;;;8.62;49.22;97266.91;1851896;77;25833;-79
2021/04/10 07:03:03;;;;;;;9.95;5.22;;;;;;;8.75;48.80;97271.50;1851828;77;25653;-79
2021/04/10 07:05:31;;;;;;;14.63;6.78;;;;;;;8.83;48.74;97273.48;1851807;77;27491;-79
2021/04/10 07:07:59;;;;;;;10.08;6.08;;;;;;;8.92;48.58;97268.23;1851741;77;26001;-79
2021/04/10 07:10:27;;;;;;;14.33;7.25;;;;;;;9.02;48.15;97263.80;1851813;77;25318;-80
2021/04/10 07:12:54;;;;;;;15.80;7.12;;;;;;;9.09;48.14;97271.87;1851730;77;25884;-80
2021/04/10 07:15:22;;;;;;;12.10;6.90;;;;;;;9.17;47.73;97263.61;1851703;77;25773;-80
2021/04/10 07:17:51;;;;;;;12.85;7.15;;;;;;;9.25;47.55;97258.02;1851605;77;27498;-79
2021/04/10 07:20:36;;;;;;;12.73;7.55;;;;;;;9.33;47.55;97261.33;1851352;77;25757;-80
2021/04/10 07:23:11;;;;;;;17.00;7.47;;;;;;;9.45;47.21;97251.27;1851740;77;25739;-80
2021/04/10 07:25:42;;;;;;;12.33;6.72;;;;;;;9.54;47.39;97248.16;1851559;77;25821;-79
2021/04/10 07:28:28;;;;;;;14.53;6.90;;;;;;;9.68;47.04;97243.06;1851758;77;25816;-78
2021/04/10 07:31:12;;;;;;;8.68;5.85;;;;;;;9.81;47.06;97247.61;1847022;77;27558;-77
2021/04/10 07:33:44;;;;;;;16.93;6.62;;;;;;;9.93;46.13;97253.18;1842928;77;25628;-77
2021/04/10 07:36:14;;;;;;;9.47;6.00;;;;;;;10.12;46.31;97253.67;1843344;77;25298;-77
2021/04/10 07:38:44;;;;;;;12.40;5.40;;;;;;;10.37;46.37;97251.95;1843053;77;26726;-78
2021/04/10 07:41:19;;;;;;;12.15;5.90;;;;;;;10.77;46.22;97253.09;1843110;77;25636;-77
2021/04/10 07:43:47;;;;;;;10.48;5.87;;;;;;;11.20;45.69;97255.95;1843152;77;28457;-77
2021/04/10 07:46:29;;;;;;;12.58;5.70;;;;;;;11.58;45.24;97251.81;1842933;77;25599;-78
2021/04/10 07:49:09;;;;;;;10.27;5.73;;;;;;;12.07;45.03;97250.13;1843356;77;25748;-79
2021/04/10 07:51:41;;;;;;;11.88;5.37;;;;;;;12.60;44.58;97253.84;1843055;77;26799;-78
2021/04/10 07:54:30;;;;;;;12.13;5.33;;;;;;;13.09;44.39;97253.28;1840578;77;25812;-77
2021/04/10 07:57:04;;;;;;;9.53;4.95;;;;;;;13.49;43.13;97245.94;1843085;77;27509;-78
2021/04/10 07:59:36;;;;;;;12.05;5.42;;;;;;;13.84;42.48;97250.86;1843083;77;26194;-78
2021/04/10 08:02:13;;;;;;;10.72;5.72;;;;;;;14.25;42.36;97249.87;1833530;77;25845;-78
2021/04/10 08:04:44;;;;;;;8.95;5.90;;;;;;;14.61;41.69;97258.27;1843012;77;25813;-78
2021/04/10 08:07:12;;;;;;;10.58;5.85;;;;;;;14.83;40.93;97259.83;1808414;77;25761;-78
2021/04/10 08:09:40;;;;;;;7.75;5.55;;;;;;;15.10;40.08;97260.05;1843008;77;27481;-79
2021/04/10 08:12:11;;;;;;;7.80;5.25;;;;;;;15.39;39.70;97262.21;1842839;77;25750;-79
2021/04/10 08:14:43;;;;;;;11.78;5.92;;;;;;;15.60;38.21;97247.08;1843104;77;25705;-79
2021/04/10 08:17:12;;;;;;;9.78;5.95;;;;;;;15.67;37.63;97242.32;1843236;77;25809;-78
2021/04/10 08:19:41;;;;;;;10.48;5.40;;;;;;;15.92;37.47;97248.17;1843038;77;25649;-79
2021/04/10 08:22:08;;;;;;;6.37;4.95;;;;;;;16.12;37.06;97247.63;1843020;77;26811;-80
2021/04/10 08:24:42;;;;;;;7.92;4.92;;;;;;;16.31;36.35;97250.88;1842887;77;25709;-79
2021/04/10 08:27:14;;;;;;;10.10;4.67;;;;;;;16.43;35.48;97244.24;1843013;77;25705;-79
2021/04/10 08:29:44;;;;;;;6.40;4.42;;;;;;;16.75;35.94;97244.42;1843174;77;25824;-79
2021/04/10 08:32:13;;;;;;;7.23;4.37;;;;;;;17.10;35.87;97245.90;1851637;77;26016;-79
2021/04/10 08:34:41;;;;;;;7.25;4.67;;;;;;;17.48;36.17;97236.19;1851972;77;28440;-79
2021/04/10 08:37:11;;;;;;;8.00;5.10;;;;;;;17.64;34.55;97242.61;1851851;77;26244;-79
2021/04/10 08:39:43;;;;;;;9.85;4.58;;;;;;;17.76;34.18;97246.53;1819109;77;26328;-80
2021/04/10 08:42:13;;;;;;;8.50;4.72;;;;;;;18.03;34.32;97246.47;1852129;77;25882;-79
2021/04/10 08:44:41;;;;;;;8.05;4.85;;;;;;;18.13;31.40;97241.89;1851966;77;26289;-79
2021/04/10 08:47:09;;;;;;;12.65;4.58;;;;;;;18.04;32.78;97238.55;1851808;77;28446;-80
2021/04/10 08:49:42;;;;;;;11.70;4.80;;;;;;;17.99;33.05;97239.36;1851751;77;25666;-80
2021/04/10 08:52:14;;;;;;;7.33;5.03;;;;;;;18.12;33.35;97225.22;1852008;77;25306;-79
2021/04/10 08:54:45;;;;;;;8.15;5.37;;;;;;;18.42;33.28;97233.33;1852125;77;25893;-80
2021/04/10 08:57:14;;;;;;;11.00;5.05;;;;;;;18.72;32.69;97234.06;1851843;77;25925;-80
2021/04/10 08:59:48;;;;;;;7.67;4.67;;;;;;;18.84;31.69;97240.09;1851927;77;28730;-80
2021/04/10 09:02:21;;;;;;;7.37;4.80;;;;;;;18.76;31.52;97227.77;1851950;77;25785;-80
2021/04/10 09:04:59;;;;;;;9.13;4.60;;;;;;;18.69;31.82;97230.77;1851938;77;25769;-80
2021/04/10 09:07:54;;;;;;;5.47;3.77;;;;;;;18.96;32.07;97234.66;1851889;77;25893;-81
2021/04/10 09:10:32;;;;;;;6.87;4.83;;;;;;;19.21;31.41;97236.64;1851978;77;25657;-80
2021/04/10 09:13:11;;;;;;;7.62;4.22;;;;;;;19.18;30.72;97231.73;1851979;77;27478;-80
2021/04/10 09:15:39;;;;;;;6.85;4.15;;;;;;;19.23;31.39;97236.38;1851876;77;26059;-80
2021/04/10 09:18:10;;;;;;;9.83;4.55;;;;;;;19.36;30.76;97242.70;1851875;77;25768;-81
2021/04/10 09:20:48;;;;;;;8.88;4.97;;;;;;;19.27;30.31;97232.02;1852320;77;26213;-80
2021/04/10 09:23:34;;;;;;;9.28;4.55;;;;;;;19.24;30.30;97236.66;1851953;77;25713;-80
2021/04/10 09:26:16;;;;;;;7.58;4.00;;;;;;;19.25;29.92;97236.39;1852054;77;27419;-80
2021/04/10 09:29:08;;;;;;;;;;;;;;;19.29;29.73;97231.20;1854662;77;26358;-80
2021/04/10 09:31:41;;;;;;;10.10;4.00;;;;;;;19.22;29.91;97225.98;1847142;77;25705;-81
2021/04/10 09:37:08;;;;;;;6.28;4.17;;;;;;;19.52;28.89;97223.88;1849113;76;26285;-79
2021/04/10 09:40:12;;;;;;;8.70;4.20;;;;;;;19.50;29.90;97223.87;1820097;78;25663;-80
2021/04/10 09:42:45;;;;;;;7.72;4.42;;;;;;;19.67;30.10;97227.99;1820165;78;27491;-78
2021/04/10 09:45:27;;;;;;;5.58;3.75;;;;;;;19.88;29.05;97231.55;1820041;78;26041;-79
2021/04/10 09:48:00;;;;;;;6.25;3.67;;;;;;;19.95;29.02;97221.66;1820135;78;25722;-79
2021/04/10 09:50:38;;;;;;;7.25;3.67;;;;;;;20.03;28.78;97223.86;1820078;78;25868;-79
2021/04/10 09:53:09;;;;;;;4.65;3.10;;;;;;;20.24;29.32;97221.35;1820186;78;25655;-80
2021/04/10 09:55:40;;;;;;;7.00;3.95;;;;;;;20.54;28.74;97229.23;1819689;78;27508;-79
2021/04/10 09:58:12;;;;;;;10.10;3.77;;;;;;;20.47;28.11;97213.91;1819965;78;26040;-79
2021/04/10 10:00:49;;;;;;;7.67;4.78;;;;;;;20.57;26.98;97232.80;1820217;77;25751;-78
2021/04/10 10:03:23;;;;;;;9.28;3.75;;;;;;;20.44;28.11;97225.44;1820090;78;26162;-78
2021/04/10 10:05:53;;;;;;;6.15;3.85;;;;;;;20.52;27.30;97207.61;1820158;78;25650;-78
2021/04/10 10:08:27;;;;;;;8.23;3.65;;;;;;;20.71;27.80;97214.10;1819971;77;28468;-81
2021/04/10 10:10:57;;;;;;;4.85;3.17;;;;;;;20.85;27.85;97207.46;1819598;78;25708;-80
2021/04/10 10:13:31;;;;;;;5.75;3.52;;;;;;;20.81;26.47;97202.25;1820032;77;25734;-80
2021/04/10 10:15:59;;;;;;;7.87;3.60;;;;;;;20.84;27.54;97199.78;1820041;78;25698;-79
2021/04/10 10:18:39;;;;;;;5.42;3.10;;;;;;;20.99;27.67;97205.75;1820144;78;25750;-80
2021/04/10 10:21:22;;;;;;;5.22;3.08;;;;;;;21.16;27.86;97197.94;1820047;78;27674;-79
2021/04/10 10:23:59;;;;;;;7.65;3.33;;;;;;;21.35;27.05;97200.06;1820097;78;25607;-80
2021/04/10 10:26:36;;;;;;;6.45;3.52;;;;;;;21.45;27.79;97193.12;1820057;78;25788;-80
2021/04/10 10:29:11;;;;;;;6.58;3.52;;;;;;;21.66;27.94;97188.28;1820094;78;26100;-79
2021/04/10 10:31:48;;;;;;;7.17;3.30;;;;;;;21.95;28.00;97182.81;1820190;78;25730;-80
2021/04/10 10:34:21;;;;;;;7.65;3.67;;;;;;;22.05;27.79;97162.12;1820145;78;27496;-81
2021/04/10 10:36:49;;;;;;;;;;;;;;;22.35;27.79;97178.28;1827000;78;25710;-78
2021/04/10 10:39:33;;;;;;;5.15;3.12;;;;;;;22.59;27.23;97183.77;1826157;78;25718;-79
2021/04/10 10:42:05;;;;;;;7.28;3.30;;;;;;;22.70;27.25;97172.93;1826125;78;26176;-80
2021/04/10 10:44:36;;;;;;;6.45;4.20;;;;;;;22.62;26.51;97168.88;1826349;78;25697;-79
2021/04/10 10:47:08;;;;;;;6.08;2.95;;;;;;;22.59;27.02;97172.21;1825989;78;27479;-80
2021/04/10 10:49:37;;;;;;;6.70;3.37;;;;;;;22.86;27.11;97168.05;1825359;78;26059;-79
2021/04/10 10:52:05;;;;;;;4.80;3.17;;;;;;;22.87;25.76;97167.77;1825487;78;26313;-79
2021/04/10 10:54:39;;;;;;;19.27;11.10;;;;;;;22.80;25.89;97172.83;1825552;78;25729;-81
2021/04/10 10:57:12;;;;;;;5.28;3.35;;;;;;;22.78;26.33;97164.59;1825563;78;25855;-80
2021/04/10 10:59:40;;;;;;;6.42;4.17;;;;;;;22.93;25.79;97168.53;1825524;78;27488;-78
2021/04/10 11:02:15;;;;;;;4.30;3.00;;;;;;;22.74;24.85;97160.76;1825430;78;26234;-80
2021/04/10 11:04:43;;;;;;;6.28;2.98;;;;;;;22.61;25.83;97150.73;1825192;78;26233;-80
2021/04/10 11:07:13;;;;;;;7.87;3.52;;;;;;;22.88;26.10;97161.15;1825386;78;25756;-79
2021/04/10 11:09:43;;;;;;;6.12;3.30;;;;;;;23.04;25.63;97161.77;1825586;78;25743;-80
2021/04/10 11:12:15;;;;;;;10.85;3.60;;;;;;;23.28;26.29;97163.88;1825502;78;27469;-80
2021/04/10 11:14:44;;;;;;;5.75;3.45;;;;;;;23.31;25.55;97145.36;1825545;78;26199;-81
2021/04/10 11:17:13;;;;;;;9.68;4.85;;;;;;;23.38;25.65;97155.20;1825426;77;25610;-81
2021/04/10 11:19:44;;;;;;;6.58;3.10;;;;;;;23.43;25.16;97154.54;1825637;78;25761;-81
2021/04/10 11:22:17;;;;;;;7.65;3.45;;;;;;;23.56;25.34;97154.36;1825522;78;25763;-81
2021/04/10 11:24:51;;;;;;;6.90;3.27;;;;;;;23.44;24.94;97159.48;1825425;78;28493;-82
2021/04/10 11:27:21;;;;;;;8.00;3.60;;;;;;;23.49;25.03;97151.16;1825573;77;25696;-81
2021/04/10 11:29:59;;;;;;;6.15;2.70;;;;;;;23.58;25.23;97140.55;1825603;78;25730;-81
2021/04/10 11:32:40;;;;;;;7.35;2.83;;;;;;;23.74;24.90;97138.92;1825574;78;25648;-82
2021/04/10 11:35:23;;;;;;;6.03;3.30;;;;;;;23.67;24.97;97132.41;1825495;78;25752;-81
2021/04/10 11:37:54;;;;;;;6.35;2.70;;;;;;;23.81;24.42;97136.02;1825560;78;28466;-79
2021/04/10 11:40:26;;;;;;;5.03;2.70;;;;;;;23.83;24.77;97134.34;1825682;78;26040;-80
2021/04/10 11:43:10;;;;;;;7.65;3.90;;;;;;;23.98;24.84;97133.52;1824733;78;25788;-79
2021/04/10 11:45:49;;;;;;;29.10;18.87;;;;;;;24.19;24.71;97130.36;1825312;78;25665;-78
2021/04/10 11:48:23;;;;;;;5.20;3.45;;;;;;;24.31;24.40;97121.05;1825486;77;25816;-79
2021/04/10 11:50:57;;;;;;;4.03;2.08;;;;;;;24.47;23.96;97121.56;1825421;78;27464;-80
2021/04/10 11:53:37;;;;;;;5.80;2.50;;;;;;;24.42;22.89;97130.75;1825423;78;26248;-79